createdAt,value
2022-08-17T08:29:30.057Z,99910.81
2022-08-17T08:31:43.197Z,99910.81
2022-08-17T08:34:02.917Z,99914.69
2022-08-17T08:37:15.790Z,99913.78
2022-08-17T08:39:35.815Z,99915.56
2022-08-17T08:41:57.475Z,99908.25
2022-08-17T08:44:18.762Z,99908.69
2022-08-17T08:46:36.848Z,99913.50
2022-08-17T08:49:10.033Z,99911.44
2022-08-17T08:51:30.269Z,99911.28
2022-08-17T08:53:59.199Z,99901.59
2022-08-17T08:56:31.690Z,99905.97
2022-08-17T08:58:50.706Z,99895.69
2022-08-17T09:00:56.668Z,99892.31
2022-08-17T09:03:42.582Z,99897.09
2022-08-17T09:06:00.282Z,99893.72
2022-08-17T09:08:47.722Z,99891.22
2022-08-17T09:10:53.209Z,99888.53
2022-08-17T09:13:30.237Z,99888.81
2022-08-17T09:15:47.420Z,99894.59
2022-08-17T09:18:39.600Z,99901.34
2022-08-17T09:20:29.560Z,99900.06
2022-08-17T09:22:39.312Z,99885.75
2022-08-17T09:24:48.167Z,99895.41
2022-08-17T09:27:28.856Z,99891.06
2022-08-17T09:29:35.323Z,99892.59
2022-08-17T09:31:55.126Z,99893.03
2022-08-17T09:34:00.083Z,99896.34
2022-08-17T09:36:11.909Z,99893.66
2022-08-17T09:38:27.102Z,99893.38
2022-08-17T09:40:43.450Z,99885.84
2022-08-17T09:42:50.485Z,99886.41
2022-08-17T09:45:08.164Z,99884.94
2022-08-17T09:47:46.681Z,99871.34
2022-08-17T09:49:56.047Z,99875.59
2022-08-17T09:52:03.438Z,99863.59
2022-08-17T09:54:38.142Z,99869.59
2022-08-17T09:57:05.722Z,99872.41
2022-08-17T09:59:38.159Z,99863.13
2022-08-17T10:01:56.292Z,99871.13
2022-08-17T10:04:29.539Z,99873.06
2022-08-17T10:06:41.136Z,99869.28
2022-08-17T10:08:52.570Z,99866.94
2022-08-17T10:11:48.240Z,99874.22
2022-08-17T10:14:37.860Z,99869.50
2022-08-17T10:16:59.108Z,99867.47
2022-08-17T10:19:31.830Z,99873.13
2022-08-17T10:22:01.564Z,99876.12
2022-08-17T10:25:21.661Z,99878.00
2022-08-17T10:27:11.792Z,99879.91
2022-08-17T10:29:22.878Z,99873.91
2022-08-17T10:31:35.493Z,99865.47
2022-08-17T10:34:22.960Z,99863.00
2022-08-17T10:36:54.736Z,99862.59
2022-08-17T10:39:34.731Z,99861.25
2022-08-17T10:41:57.941Z,99866.97
2022-08-17T10:44:38.660Z,99865.06
2022-08-17T10:46:52.272Z,99866.34
2022-08-17T10:49:25.259Z,99861.31
2022-08-17T10:51:37.858Z,99855.94
2022-08-17T10:53:50.708Z,99858.56
2022-08-17T10:56:21.772Z,99865.63
2022-08-17T10:58:24.734Z,99853.66
2022-08-17T11:00:42.469Z,99862.41
2022-08-17T11:02:50.213Z,99856.00
2022-08-17T11:04:58.758Z,99855.78
2022-08-17T11:07:15.999Z,99854.09
2022-08-17T11:09:29.268Z,99849.28
2022-08-17T11:11:35.857Z,99850.84
2022-08-17T11:13:59.853Z,99847.66
2022-08-17T11:16:14.611Z,99852.03
2022-08-17T11:18:31.954Z,99846.00
2022-08-17T11:21:06.263Z,99835.06
2022-08-17T11:23:40.009Z,99836.72
2022-08-17T11:25:50.947Z,99835.88
2022-08-17T11:28:06.748Z,99832.56
2022-08-17T11:30:34.829Z,99825.72
2022-08-17T11:32:52.935Z,99826.28
2022-08-17T11:35:29.288Z,99815.12
2022-08-17T11:38:03.038Z,99827.09
2022-08-17T11:40:27.088Z,99820.06
2022-08-17T11:42:37.536Z,99811.31
2022-08-17T11:44:40.316Z,99812.22
2022-08-17T11:47:01.166Z,99815.66
2022-08-17T11:49:34.870Z,99818.41
2022-08-17T11:52:01.632Z,99817.72
2022-08-17T11:54:32.132Z,99810.87
2022-08-17T11:56:53.644Z,99823.31
2022-08-17T11:58:56.526Z,99817.97
2022-08-17T12:01:00.899Z,99811.22
2022-08-17T12:03:22.313Z,99812.91
2022-08-17T12:05:32.294Z,99814.22
2022-08-17T12:07:43.117Z,99816.25
2022-08-17T12:09:49.389Z,99802.09
2022-08-17T12:12:14.617Z,99792.69
2022-08-17T12:14:32.273Z,99782.81
2022-08-17T12:16:45.219Z,99784.19
2022-08-17T12:19:02.491Z,99782.47
2022-08-17T12:21:07.367Z,99782.94
2022-08-17T12:23:17.237Z,99785.50
2022-08-17T12:25:24.195Z,99790.13
2022-08-17T12:28:04.363Z,99782.22
2022-08-17T12:29:56.145Z,99779.56
2022-08-17T12:32:02.222Z,99787.69
2022-08-17T12:34:05.978Z,99776.25
2022-08-17T12:36:14.824Z,99773.03
2022-08-17T12:38:28.126Z,99773.25
2022-08-17T12:40:35.541Z,99780.31
2022-08-17T12:42:40.393Z,99771.87
2022-08-17T12:44:46.278Z,99775.31
2022-08-17T12:47:09.686Z,99769.28
2022-08-17T12:49:24.632Z,99783.56
2022-08-17T12:51:29.301Z,99767.28
2022-08-17T12:53:35.213Z,99760.75
2022-08-17T12:55:38.942Z,99764.69
2022-08-17T12:58:14.057Z,99761.19
2022-08-17T13:00:21.904Z,99762.59
2022-08-17T13:02:30.259Z,99757.81
2022-08-17T13:04:32.682Z,99771.72
2022-08-17T13:06:37.283Z,99772.28
2022-08-17T13:08:48.115Z,99773.03
2022-08-17T13:11:04.048Z,99774.47
2022-08-17T13:13:26.091Z,99772.91
2022-08-17T13:15:44.356Z,99762.69
2022-08-17T13:17:56.795Z,99760.81
2022-08-17T13:19:59.209Z,99765.59
2022-08-17T13:22:04.176Z,99767.13
2022-08-17T13:24:17.919Z,99774.78
2022-08-17T13:26:37.453Z,99764.22
2022-08-17T13:28:48.397Z,99771.78
2022-08-17T13:31:13.841Z,99774.25
2022-08-17T13:33:43.267Z,99770.91
2022-08-17T13:35:50.279Z,99758.63
2022-08-17T13:38:03.698Z,99764.91
2022-08-17T13:40:08.974Z,99759.88
2022-08-17T13:42:30.147Z,99764.50
2022-08-17T13:44:37.306Z,99768.31
2022-08-17T13:46:39.616Z,99761.00
2022-08-17T13:48:42.200Z,99761.22
2022-08-17T13:51:04.004Z,99758.50
2022-08-17T13:53:25.559Z,99757.19
2022-08-17T13:55:31.259Z,99762.75
2022-08-17T13:57:35.272Z,99755.28
2022-08-17T13:59:54.240Z,99755.97
2022-08-17T14:01:59.021Z,99754.75
2022-08-17T14:04:14.211Z,99749.72
2022-08-17T14:06:23.681Z,99758.44
2022-08-17T14:08:38.716Z,99750.81
2022-08-17T14:10:41.403Z,99758.38
2022-08-17T14:12:45.300Z,99750.25
2022-08-17T14:14:49.641Z,99752.19
2022-08-17T14:16:53.343Z,99749.78
2022-08-17T14:18:57.203Z,99745.91
2022-08-17T14:20:59.997Z,99747.16
2022-08-17T14:23:02.579Z,99749.50
2022-08-17T14:25:06.311Z,99750.09
2022-08-17T14:27:12.831Z,99746.34
2022-08-17T14:29:15.740Z,99743.31
2022-08-17T14:31:19.280Z,99752.13
2022-08-17T14:33:22.770Z,99743.47
2022-08-17T14:35:27.513Z,99748.13
2022-08-17T14:37:30.382Z,99748.28
2022-08-17T14:39:32.952Z,99734.69
2022-08-17T14:41:36.085Z,99747.00
2022-08-17T14:43:39.886Z,99740.88
2022-08-17T14:45:42.987Z,99741.41
2022-08-17T14:47:45.545Z,99748.03
2022-08-17T14:49:48.756Z,99748.81
2022-08-17T14:51:51.301Z,99743.31
2022-08-17T14:53:53.866Z,99748.28
2022-08-17T14:55:56.195Z,99748.28
2022-08-17T14:57:58.713Z,99739.78
2022-08-17T15:00:02.007Z,99750.88
2022-08-17T15:02:04.801Z,99745.16
2022-08-17T15:04:07.102Z,99740.19
2022-08-17T15:06:09.703Z,99737.94
2022-08-17T15:08:12.567Z,99738.97
2022-08-17T15:10:16.385Z,99741.47
2022-08-17T15:12:22.962Z,99735.81
2022-08-17T15:14:25.577Z,99741.00
2022-08-17T15:16:27.888Z,99751.59
2022-08-17T15:18:31.209Z,99748.44
2022-08-17T15:20:34.200Z,99747.38
2022-08-17T15:22:37.009Z,99748.66
2022-08-17T15:24:39.713Z,99738.56
2022-08-17T15:26:42.051Z,99746.44
2022-08-17T15:28:44.336Z,99739.28
2022-08-17T15:30:54.908Z,99741.72
2022-08-17T15:32:59.463Z,99746.38
2022-08-17T15:35:05.171Z,99760.97
2022-08-17T15:37:07.762Z,99749.81
2022-08-17T15:39:10.084Z,99746.03
2022-08-17T15:41:15.527Z,99753.38
2022-08-17T15:43:27.400Z,99742.09
2022-08-17T15:45:30.816Z,99744.66
2022-08-17T15:47:33.175Z,99747.66
2022-08-17T15:49:39.389Z,99750.91
2022-08-17T15:51:41.810Z,99748.06
2022-08-17T15:53:48.453Z,99750.81
2022-08-17T15:55:50.977Z,99757.69
2022-08-17T15:57:54.549Z,99756.87
2022-08-17T15:59:58.724Z,99763.16
2022-08-17T16:03:14.041Z,99756.34
2022-08-17T16:04:30.167Z,99750.63
2022-08-17T16:06:33.638Z,99748.72
2022-08-17T16:08:37.240Z,99752.25
2022-08-17T16:11:13.792Z,99759.03
2022-08-17T16:13:17.994Z,99752.00
2022-08-17T16:15:21.304Z,99749.44
2022-08-17T16:17:39.305Z,99743.78
2022-08-17T16:19:42.931Z,99758.09
2022-08-17T16:21:45.204Z,99750.22
2022-08-17T16:23:49.476Z,99759.38
2022-08-17T16:25:53.442Z,99746.34
2022-08-17T16:27:57.067Z,99745.44
2022-08-17T16:29:59.688Z,99754.38
2022-08-17T16:32:14.884Z,99741.19
2022-08-17T16:34:18.940Z,99739.16
2022-08-17T16:36:23.280Z,99740.94
2022-08-17T16:38:25.787Z,99747.44
2022-08-17T16:40:31.256Z,99743.97
2022-08-17T16:42:39.689Z,99741.97
2022-08-17T16:44:42.020Z,99744.19
2022-08-17T16:46:45.931Z,99746.38
2022-08-17T16:48:48.676Z,99739.34
2022-08-17T16:51:02.985Z,99741.91
2022-08-17T16:53:17.118Z,99734.87
2022-08-17T16:55:22.363Z,99744.06
2022-08-17T16:57:24.899Z,99751.31
2022-08-17T16:59:30.243Z,99751.69
2022-08-17T17:01:34.486Z,99743.19
2022-08-17T17:03:40.158Z,99748.75
2022-08-17T17:05:53.056Z,99741.53
2022-08-17T17:08:03.474Z,99748.28
2022-08-17T17:10:12.699Z,99753.78
2022-08-17T17:12:19.291Z,99756.47
2022-08-17T17:14:45.134Z,99759.00
2022-08-17T17:17:07.030Z,99749.53
2022-08-17T17:19:12.420Z,99759.50
2022-08-17T17:21:23.000Z,99757.00
2022-08-17T17:23:30.788Z,99761.38
2022-08-17T17:25:45.329Z,99762.22
2022-08-17T17:28:05.281Z,99758.16
2022-08-17T17:30:13.874Z,99765.66
2022-08-17T17:32:28.339Z,99772.37
2022-08-17T17:34:34.520Z,99762.81
2022-08-17T17:36:42.470Z,99772.59
2022-08-17T17:38:50.056Z,99777.25
2022-08-17T17:41:02.922Z,99778.53
2022-08-17T17:43:34.869Z,99780.72
2022-08-17T17:45:35.872Z,99780.97
2022-08-17T17:47:38.456Z,99784.38
2022-08-17T17:49:44.745Z,99783.22
2022-08-17T17:52:05.884Z,99788.00
2022-08-17T17:54:36.951Z,99791.81
2022-08-17T17:57:07.041Z,99793.00
2022-08-17T17:59:19.617Z,99791.09
2022-08-17T18:01:41.840Z,99795.41
2022-08-17T18:03:51.760Z,99790.59
2022-08-17T18:06:12.729Z,99796.25
2022-08-17T18:08:47.020Z,99787.34
2022-08-17T18:11:06.654Z,99798.38
2022-08-17T18:13:26.679Z,99791.28
2022-08-17T18:15:37.090Z,99802.19
2022-08-17T18:17:39.610Z,99805.91
2022-08-17T18:19:41.911Z,99806.16
2022-08-17T18:21:49.343Z,99803.53
2022-08-17T18:23:54.608Z,99810.91
2022-08-17T18:25:58.805Z,99813.34
2022-08-17T18:28:01.266Z,99814.69
2022-08-17T18:30:27.446Z,99814.34
2022-08-17T18:32:36.629Z,99815.44
2022-08-17T18:34:48.554Z,99827.53
2022-08-17T18:36:53.026Z,99834.44
2022-08-17T18:39:09.909Z,99828.31
2022-08-17T18:41:23.802Z,99823.72
2022-08-17T18:43:44.147Z,99831.63
2022-08-17T18:46:15.915Z,99832.22
2022-08-17T18:48:36.777Z,99833.41
2022-08-17T18:50:41.484Z,99833.50
2022-08-17T18:52:48.258Z,99834.59
2022-08-17T18:55:05.940Z,99841.03
2022-08-17T18:57:11.759Z,99835.28
2022-08-17T18:59:22.040Z,99841.50
2022-08-17T19:01:41.957Z,99836.88
2022-08-17T19:03:47.299Z,99840.84
2022-08-17T19:05:56.059Z,99846.56
2022-08-17T19:08:35.307Z,99845.16
2022-08-17T19:10:46.438Z,99845.78
2022-08-17T19:13:14.123Z,99842.81
2022-08-17T19:15:39.914Z,99853.06
2022-08-17T19:17:53.379Z,99850.88
2022-08-17T19:20:07.448Z,99852.44
2022-08-17T19:22:28.505Z,99856.87
2022-08-17T19:24:34.430Z,99862.13
2022-08-17T19:26:54.533Z,99856.53
2022-08-17T19:29:06.936Z,99859.31
2022-08-17T19:31:19.297Z,99858.97
2022-08-17T19:33:22.168Z,99869.09
2022-08-17T19:35:30.232Z,99857.19
2022-08-17T19:37:39.311Z,99861.09
2022-08-17T19:40:10.257Z,99864.19
2022-08-17T19:42:42.440Z,99864.31
2022-08-17T19:44:58.665Z,99859.38
2022-08-17T19:47:12.930Z,99862.53
2022-08-17T19:49:22.730Z,99861.44
2022-08-17T19:51:52.056Z,99865.06
2022-08-17T19:54:06.315Z,99860.53
2022-08-17T19:56:22.777Z,99865.47
2022-08-17T19:58:53.879Z,99868.22
2022-08-17T20:00:56.635Z,99862.03
2022-08-17T20:03:16.540Z,99865.31
2022-08-17T20:06:11.496Z,99868.69
2022-08-17T20:08:20.475Z,99865.03
2022-08-17T20:10:37.570Z,99860.78
2022-08-17T20:12:44.616Z,99869.06
2022-08-17T20:14:57.494Z,99862.00
2022-08-17T20:17:02.760Z,99859.03
2022-08-17T20:19:12.291Z,99858.03
2022-08-17T20:21:26.845Z,99846.81
2022-08-17T20:23:40.192Z,99858.97
2022-08-17T20:26:08.491Z,99857.72
2022-08-17T20:28:17.459Z,99855.16
2022-08-17T20:30:23.262Z,99859.84
2022-08-17T20:32:36.822Z,99855.00
2022-08-17T20:34:40.071Z,99855.59
2022-08-17T20:36:57.441Z,99854.78
2022-08-17T20:38:59.911Z,99847.28
2022-08-17T20:41:02.540Z,99850.50
2022-08-17T20:43:35.694Z,99846.38
2022-08-17T20:45:41.067Z,99856.06
2022-08-17T20:48:07.778Z,99839.38
2022-08-17T20:50:32.506Z,99843.22
2022-08-17T20:52:46.158Z,99844.22
2022-08-17T20:54:52.412Z,99843.75
2022-08-17T20:56:57.823Z,99837.41
2022-08-17T20:59:02.408Z,99840.63
2022-08-17T21:01:16.122Z,99851.91
2022-08-17T21:03:25.353Z,99842.38
2022-08-17T21:05:59.814Z,99840.16
2022-08-17T21:08:17.521Z,99848.50
2022-08-17T21:10:25.937Z,99846.97
2022-08-17T21:12:48.051Z,99850.06
2022-08-17T21:15:00.498Z,99850.00
2022-08-17T21:17:17.678Z,99862.44
2022-08-17T21:19:49.003Z,99855.56
2022-08-17T21:22:03.266Z,99850.44
2022-08-17T21:24:31.508Z,99851.09
2022-08-17T21:27:01.585Z,99862.50
2022-08-17T21:29:40.477Z,99858.13
2022-08-17T21:32:03.179Z,99864.56
2022-08-17T21:34:14.926Z,99864.87
2022-08-17T21:36:26.209Z,99864.84
2022-08-17T21:38:40.689Z,99867.47
2022-08-17T21:40:46.979Z,99862.41
2022-08-17T21:43:15.882Z,99861.66
2022-08-17T21:45:24.348Z,99865.03
2022-08-17T21:47:29.972Z,99870.75
2022-08-17T21:49:37.644Z,99872.16
2022-08-17T21:51:45.953Z,99877.75
2022-08-17T21:53:52.803Z,99880.06
2022-08-17T21:55:55.439Z,99874.41
2022-08-17T21:58:14.086Z,99878.75
2022-08-17T22:00:25.339Z,99879.09
2022-08-17T22:02:36.181Z,99877.59
2022-08-17T22:04:40.948Z,99884.34
2022-08-17T22:06:52.610Z,99892.97
2022-08-17T22:09:12.026Z,99891.41
2022-08-17T22:11:14.657Z,99896.25
2022-08-17T22:13:23.242Z,99887.50
2022-08-17T22:15:25.876Z,99896.94
2022-08-17T22:17:35.412Z,99912.38
2022-08-17T22:19:38.460Z,99908.63
2022-08-17T22:21:41.046Z,99904.63
2022-08-17T22:24:04.376Z,99906.06
2022-08-17T22:26:12.615Z,99907.94
2022-08-17T22:28:36.765Z,99903.00
2022-08-17T22:30:58.147Z,99901.78
2022-08-17T22:33:21.398Z,99905.28
2022-08-17T22:35:38.410Z,99911.19
2022-08-17T22:37:40.676Z,99915.19
2022-08-17T22:39:43.077Z,99910.84
2022-08-17T22:42:00.277Z,99908.97
2022-08-17T22:44:17.668Z,99918.50
2022-08-17T22:46:23.601Z,99913.31
2022-08-17T22:48:29.389Z,99920.75
2022-08-17T22:50:33.087Z,99926.34
2022-08-17T22:53:01.304Z,99932.53
2022-08-17T22:55:35.828Z,99939.97
2022-08-17T22:58:04.984Z,99944.09
2022-08-17T23:00:29.524Z,99943.03
2022-08-17T23:02:34.832Z,99949.81
2022-08-17T23:04:40.764Z,99953.53
2022-08-17T23:06:43.288Z,99957.47
2022-08-17T23:08:54.898Z,99959.06
2022-08-17T23:11:00.370Z,99966.53
2022-08-17T23:13:03.252Z,99967.28
2022-08-17T23:15:11.771Z,99968.00
2022-08-17T23:17:14.412Z,99965.94
2022-08-17T23:19:20.491Z,99974.19
2022-08-17T23:21:27.356Z,99973.03
2022-08-17T23:23:29.823Z,99969.09
2022-08-17T23:25:34.247Z,99971.19
2022-08-17T23:27:36.893Z,99980.03
2022-08-17T23:29:42.139Z,99981.62
2022-08-17T23:31:44.806Z,99983.28
2022-08-17T23:33:47.723Z,99966.38
2022-08-17T23:35:49.982Z,99972.56
2022-08-17T23:37:52.891Z,99964.94
2022-08-17T23:39:55.345Z,99963.50
2022-08-17T23:41:59.163Z,99961.59
2022-08-17T23:46:24.502Z,99953.59
2022-08-17T23:48:35.416Z,99958.28
2022-08-17T23:50:39.132Z,99960.78
2022-08-17T23:52:43.720Z,99955.19
2022-08-17T23:54:47.917Z,99957.84
